Time;durP1;ratioP1;P1;durP2;ratioP2;P2;SDS_P1;SDS_P2;PMS_P1;PMS_P2;Temp;Humidity;BMP_temperature;BMP_pressure;BME280_temperature;BME280_humidity;BME280_pressure;Samples;Min_cycle;Max_cycle;Signal;HPM_P1;HPM_P2
2024/01/02 00:11:56;;;;;;;4.10;2.80;;;;;;;20.75;55.88;100088.50;41356551;28;20108;-66
2024/01/02 00:31:57;;;;;;;4.75;3.03;;;;;;;20.74;55.80;100084.22;41352884;28;20567;-67
2024/01/02 00:51:57;;;;;;;4.35;2.85;;;;;;;20.71;55.57;100113.38;41216320;28;20050;-67
2024/01/02 01:11:58;;;;;;;4.90;3.00;;;;;;;20.66;55.17;100108.47;41382718;28;20409;-68
2024/01/02 01:31:58;;;;;;;5.22;3.00;;;;;;;20.58;55.65;100101.19;41392468;28;20124;-66
2024/01/02 01:51:59;;;;;;;3.92;2.83;;;;;;;20.57;55.31;100104.78;41376926;28;20544;-66
2024/01/02 02:11:59;;;;;;;2.40;2.20;;;;;;;20.52;55.37;100087.69;41366300;28;20525;-67
2024/01/02 02:31:59;;;;;;;3.05;2.40;;;;;;;20.46;55.15;100107.44;41372574;28;20074;-66
2024/01/02 02:52:00;;;;;;;2.97;2.40;;;;;;;20.45;55.02;100103.13;41372450;28;20042;-66
2024/01/02 03:12:00;;;;;;;2.65;2.30;;;;;;;20.42;54.84;100090.19;41364407;28;20035;-68
2024/01/02 03:32:01;;;;;;;3.50;2.63;;;;;;;20.38;55.07;100081.72;41355119;28;20037;-64
2024/01/02 03:52:02;;;;;;;2.70;2.40;;;;;;;20.35;54.56;100062.72;41348707;28;20049;-66
2024/01/02 04:12:03;;;;;;;3.67;2.47;;;;;;;20.30;54.57;100081.50;41346197;28;20401;-66
2024/01/02 04:32:04;;;;;;;2.58;2.22;;;;;;;20.29;54.48;100092.97;41347635;28;20046;-65
2024/01/02 04:52:04;;;;;;;2.80;2.42;;;;;;;20.22;54.27;100089.16;41336643;28;20188;-66
2024/01/02 05:12:05;;;;;;;2.90;2.40;;;;;;;20.16;54.61;100077.31;41331067;28;20050;-67
2024/01/02 05:32:06;;;;;;;4.78;2.70;;;;;;;20.99;52.75;100062.00;41340860;28;20046;-68
2024/01/02 05:52:06;;;;;;;8.27;2.95;;;;;;;21.21;53.14;100065.50;41220436;28;21012;-68
2024/01/02 06:12:08;;;;;;;8.00;2.63;;;;;;;21.34;52.48;100074.06;41295349;28;20627;-66
2024/01/02 06:32:08;;;;;;;5.03;3.20;;;;;;;21.30;52.66;100070.03;41374580;28;20120;-68
2024/01/02 06:52:10;;;;;;;3.85;2.60;;;;;;;21.43;52.36;100072.44;41416190;28;20611;-68
2024/01/02 07:12:10;;;;;;;5.13;3.13;;;;;;;21.32;52.16;100080.41;41381856;28;20061;-68
2024/01/02 07:32:10;;;;;;;30.98;12.35;;;;;;;21.69;52.44;100087.91;41376452;28;20776;-66
2024/01/02 07:52:11;;;;;;;31.83;11.60;;;;;;;21.77;53.07;100071.47;41360255;28;20480;-64
2024/01/02 08:12:11;;;;;;;21.20;9.48;;;;;;;21.59;52.45;100051.81;41352506;28;20533;-66
2024/01/02 08:32:12;;;;;;;58.55;16.55;;;;;;;21.67;51.66;100052.97;41358723;28;20068;-66
2024/01/02 08:52:13;;;;;;;51.42;15.25;;;;;;;21.67;51.80;100045.88;41361951;28;20056;-67
2024/01/02 09:12:15;;;;;;;37.97;12.95;;;;;;;21.60;50.37;100042.09;41345812;28;20126;-66
2024/01/02 09:32:16;;;;;;;23.45;10.95;;;;;;;21.68;49.69;100001.91;41374606;28;20069;-67
2024/01/02 09:52:47;;;;;;;23.95;9.93;;;;;;;21.63;50.19;99990.94;41367625;28;20038;-67
2024/01/02 10:13:07;;;;;;;25.77;10.15;;;;;;;21.62;50.00;99976.94;41366480;28;20052;-66
2024/01/02 10:33:24;;;;;;;20.20;9.30;;;;;;;21.46;49.45;99952.81;41365213;28;20823;-66
2024/01/02 10:53:55;;;;;;;17.50;8.63;;;;;;;21.48;49.36;99927.19;41358297;28;20054;-66
2024/01/02 11:13:58;;;;;;;21.30;8.95;;;;;;;21.61;52.33;99890.13;41355186;28;20074;-66
2024/01/02 11:34:13;;;;;;;16.25;8.73;;;;;;;;;;41345676;28;20045;-65
2024/01/02 11:54:55;;;;;;;14.57;8.63;;;;;;;21.78;51.26;99830.69;41345025;28;20067;-66
2024/01/02 12:15:33;;;;;;;13.75;8.60;;;;;;;21.80;51.39;99776.00;41343320;28;20053;-66
2024/01/02 12:36:04;;;;;;;13.75;8.55;;;;;;;21.73;51.86;99754.66;41192590;28;20049;-66
2024/01/02 12:56:08;;;;;;;15.10;9.02;;;;;;;21.74;51.79;99727.34;41183378;28;20457;-67
2024/01/02 13:16:08;;;;;;;13.68;8.70;;;;;;;21.72;51.62;99685.31;41257273;28;20042;-67
2024/01/02 13:36:11;;;;;;;11.48;8.10;;;;;;;21.46;51.94;99648.13;41335674;28;20038;-67
2024/01/02 13:56:11;;;;;;;9.50;7.07;;;;;;;21.62;52.37;99623.88;41355336;28;20050;-68
2024/01/02 14:16:13;;;;;;;11.30;7.22;;;;;;;21.57;52.52;99589.25;41387342;28;20057;-69
2024/01/02 14:36:19;;;;;;;13.55;7.60;;;;;;;;;;41386003;28;20050;-68
2024/01/02 14:56:41;;;;;;;10.65;7.57;;;;;;;21.64;52.43;99516.56;41365375;28;20053;-73
2024/01/02 15:17:18;;;;;;;8.75;6.32;;;;;;;21.57;53.72;99489.94;41394795;28;20052;-68
2024/01/02 15:37:28;;;;;;;9.15;6.30;;;;;;;21.39;53.95;99515.34;41364145;28;20054;-67
2024/01/02 15:57:31;;;;;;;9.82;5.93;;;;;;;21.29;53.67;99528.53;41361457;28;20125;-67
2024/01/02 16:17:47;;;;;;;7.93;5.25;;;;;;;21.22;53.26;99514.25;41354733;28;20050;-66
2024/01/02 16:38:07;;;;;;;5.38;4.55;;;;;;;21.15;53.18;99506.06;41349598;28;20049;-67
2024/01/02 16:58:28;;;;;;;12.63;4.75;;;;;;;21.09;54.64;99482.94;41340143;28;20065;-73
2024/01/02 17:18:29;;;;;;;9.02;5.00;;;;;;;21.17;54.93;99467.28;41357118;28;20053;-72
2024/01/02 17:38:30;;;;;;;6.60;4.50;;;;;;;21.06;55.06;99435.88;41361432;28;20054;-70
2024/01/02 17:58:44;;;;;;;5.28;4.45;;;;;;;21.05;54.92;99406.06;41414597;28;20038;-71
2024/01/02 18:19:04;;;;;;;6.00;4.25;;;;;;;21.00;54.62;99408.28;41415675;28;20053;-73
2024/01/02 18:39:36;;;;;;;8.95;4.50;;;;;;;21.09;54.63;99404.81;41426697;28;24206;-68
2024/01/02 18:59:47;;;;;;;5.72;4.05;;;;;;;21.02;54.92;99387.94;41429193;28;20137;-72
2024/01/02 19:19:59;;;;;;;8.60;5.10;;;;;;;21.13;57.55;99367.66;41426678;28;20054;-72
2024/01/02 19:40:02;;;;;;;9.45;6.63;;;;;;;21.25;60.88;99340.19;41403391;28;20057;-74
2024/01/02 20:00:05;;;;;;;14.30;6.45;;;;;;;21.23;59.65;99295.59;41372161;28;20107;-68
2024/01/02 20:20:31;;;;;;;12.18;5.90;;;;;;;21.24;58.85;99273.56;41342075;28;20042;-71
2024/01/02 20:40:40;;;;;;;13.00;6.30;;;;;;;21.11;57.92;99252.00;41335224;28;21195;-70
2024/01/02 21:00:40;;;;;;;7.13;5.22;;;;;;;20.81;54.86;99221.53;41339107;28;20042;-74
2024/01/02 21:20:42;;;;;;;9.25;5.22;;;;;;;20.90;55.50;99220.66;41368175;28;20050;-74
2024/01/02 21:40:45;;;;;;;7.72;5.15;;;;;;;20.79;55.85;99206.72;41384013;28;20082;-73
2024/01/02 22:01:05;;;;;;;8.13;4.57;;;;;;;20.77;56.51;99169.19;41376204;28;21009;-76
2024/01/02 22:21:25;;;;;;;7.78;4.82;;;;;;;20.70;56.47;99146.22;41388880;28;20035;-74
2024/01/02 22:41:27;;;;;;;9.77;4.82;;;;;;;20.62;57.06;99105.69;41206562;28;20034;-73
2024/01/02 23:01:28;;;;;;;6.80;4.57;;;;;;;20.58;56.95;99111.38;41207361;28;20525;-72
2024/01/02 23:21:29;;;;;;;5.50;4.55;;;;;;;20.56;57.23;99111.53;41285510;28;20061;-74
2024/01/02 23:41:32;;;;;;;4.65;3.70;;;;;;;20.58;56.91;99091.19;41372511;28;20037;-72
